createdAt,value
2023-07-18T00:01:33.126Z,4.13
2023-07-18T00:03:59.755Z,3.78
2023-07-18T00:06:26.296Z,4.22
2023-07-18T00:08:52.855Z,4.13
2023-07-18T00:11:19.734Z,3.53
2023-07-18T00:13:46.488Z,4.05
2023-07-18T00:16:13.159Z,3.75
2023-07-18T00:18:39.736Z,4.40
2023-07-18T00:21:06.685Z,3.47
2023-07-18T00:23:33.248Z,3.88
2023-07-18T00:25:59.784Z,3.97
2023-07-18T00:28:26.554Z,3.42
2023-07-18T00:30:53.103Z,4.18
2023-07-18T00:33:19.660Z,4.25
2023-07-18T00:35:46.150Z,3.67
2023-07-18T00:38:15.732Z,3.70
2023-07-18T00:40:42.281Z,3.65
2023-07-18T00:43:15.949Z,3.80
2023-07-18T00:45:44.196Z,3.95
2023-07-18T00:48:11.650Z,3.45
2023-07-18T00:50:39.114Z,3.97
2023-07-18T00:53:06.139Z,3.70
2023-07-18T00:55:32.869Z,3.70
2023-07-18T00:58:00.914Z,3.80
2023-07-18T01:00:28.046Z,3.33
2023-07-18T01:02:55.310Z,4.35
2023-07-18T01:05:22.115Z,3.83
2023-07-18T01:07:49.741Z,3.45
2023-07-18T01:10:17.276Z,3.83
2023-07-18T01:12:45.204Z,3.92
2023-07-18T01:15:14.321Z,3.75
2023-07-18T01:17:47.850Z,3.95
2023-07-18T01:20:19.612Z,3.90
2023-07-18T01:22:47.724Z,4.10
2023-07-18T01:25:17.775Z,4.05
2023-07-18T01:27:45.826Z,3.80
2023-07-18T01:30:13.513Z,4.00
2023-07-18T01:32:40.099Z,3.88
2023-07-18T01:35:09.303Z,3.95
2023-07-18T01:37:38.267Z,4.07
2023-07-18T01:40:07.645Z,3.63
2023-07-18T01:42:34.207Z,3.90
2023-07-18T01:45:00.856Z,4.40
2023-07-18T01:47:27.431Z,3.55
2023-07-18T01:49:54.244Z,3.75
2023-07-18T01:52:20.786Z,4.10
2023-07-18T01:54:47.243Z,3.40
2023-07-18T01:57:13.776Z,4.00
2023-07-18T01:59:40.276Z,3.65
2023-07-18T02:02:07.636Z,4.05
2023-07-18T02:04:34.376Z,3.72
2023-07-18T02:07:01.312Z,4.07
2023-07-18T02:09:29.134Z,4.13
2023-07-18T02:11:55.870Z,3.63
2023-07-18T02:14:22.709Z,4.03
2023-07-18T02:16:49.343Z,4.10
2023-07-18T02:19:15.935Z,3.10
2023-07-18T02:21:42.494Z,4.00
2023-07-18T02:24:08.977Z,4.13
2023-07-18T02:26:36.534Z,4.47
2023-07-18T02:29:03.092Z,3.83
2023-07-18T02:31:29.697Z,3.83
2023-07-18T02:33:56.303Z,3.45
2023-07-18T02:36:23.018Z,4.20
2023-07-18T02:38:49.530Z,4.15
2023-07-18T02:41:16.056Z,3.83
2023-07-18T02:43:42.587Z,3.65
2023-07-18T02:46:09.133Z,4.03
2023-07-18T02:48:35.703Z,3.80
2023-07-18T02:51:02.267Z,3.60
2023-07-18T02:53:28.796Z,3.63
2023-07-18T02:55:55.481Z,3.50
2023-07-18T02:58:23.451Z,3.72
2023-07-18T03:00:52.468Z,3.95
2023-07-18T03:03:19.021Z,3.72
2023-07-18T03:05:45.615Z,4.35
2023-07-18T03:08:12.124Z,3.92
2023-07-18T03:10:39.928Z,3.78
2023-07-18T03:13:06.459Z,4.20
2023-07-18T03:15:33.026Z,3.70
2023-07-18T03:17:59.827Z,3.80
2023-07-18T03:20:27.953Z,4.35
2023-07-18T03:22:54.531Z,3.97
2023-07-18T03:25:21.933Z,3.83
2023-07-18T03:27:48.671Z,3.63
2023-07-18T03:30:15.448Z,3.38
2023-07-18T03:32:42.266Z,4.53
2023-07-18T03:35:10.470Z,4.07
2023-07-18T03:37:37.060Z,4.22
2023-07-18T03:40:07.695Z,3.47
2023-07-18T03:42:35.060Z,3.45
2023-07-18T03:45:01.840Z,3.97
2023-07-18T03:47:29.416Z,3.88
2023-07-18T03:49:57.295Z,3.45
2023-07-18T03:52:23.865Z,4.03
2023-07-18T03:54:50.449Z,4.05
2023-07-18T03:57:17.023Z,4.18
2023-07-18T03:59:43.526Z,4.50
2023-07-18T04:02:10.162Z,3.88
2023-07-18T04:04:36.721Z,4.32
2023-07-18T04:07:03.698Z,4.07
2023-07-18T04:09:30.752Z,4.15
2023-07-18T04:11:57.309Z,4.10
2023-07-18T04:14:23.840Z,3.70
2023-07-18T04:16:50.409Z,4.35
2023-07-18T04:19:16.897Z,3.92
2023-07-18T04:21:43.407Z,4.47
2023-07-18T04:24:10.283Z,4.00
2023-07-18T04:26:37.207Z,4.28
2023-07-18T04:29:07.229Z,3.47
2023-07-18T04:31:34.117Z,4.57
2023-07-18T04:34:00.816Z,3.92
2023-07-18T04:36:27.321Z,5.07
2023-07-18T04:38:53.806Z,4.53
2023-07-18T04:41:20.547Z,4.05
2023-07-18T04:43:48.555Z,3.85
2023-07-18T04:46:15.111Z,4.20
2023-07-18T04:48:41.708Z,4.30
2023-07-18T04:51:08.314Z,4.18
2023-07-18T04:53:34.863Z,5.07
2023-07-18T04:56:01.511Z,4.20
2023-07-18T04:58:28.853Z,4.45
2023-07-18T05:00:56.640Z,4.72
2023-07-18T05:03:24.032Z,4.55
2023-07-18T05:05:50.679Z,4.32
2023-07-18T05:08:18.026Z,4.40
2023-07-18T05:10:45.075Z,4.15
2023-07-18T05:13:11.857Z,3.80
2023-07-18T05:15:39.113Z,5.30
2023-07-18T05:18:05.692Z,4.07
2023-07-18T05:20:32.329Z,3.00
2023-07-18T05:22:59.914Z,2.70
2023-07-18T05:25:26.539Z,3.22
2023-07-18T05:27:53.086Z,2.83
2023-07-18T05:30:20.823Z,3.55
2023-07-18T05:32:51.481Z,3.90
2023-07-18T05:35:18.057Z,3.58
2023-07-18T05:37:45.392Z,3.70
2023-07-18T05:40:12.743Z,4.03
2023-07-18T05:42:40.964Z,3.83
2023-07-18T05:45:09.233Z,3.50
2023-07-18T05:47:39.774Z,4.03
2023-07-18T05:50:07.664Z,3.78
2023-07-18T05:52:34.713Z,3.85
2023-07-18T05:55:01.540Z,4.43
2023-07-18T05:57:28.219Z,3.45
2023-07-18T05:59:54.800Z,3.88
2023-07-18T06:02:22.559Z,4.18
2023-07-18T06:04:49.242Z,3.80
2023-07-18T06:07:17.200Z,4.00
2023-07-18T06:09:44.343Z,4.32
2023-07-18T06:12:11.104Z,3.58
2023-07-18T06:14:37.673Z,4.22
2023-07-18T06:17:04.728Z,4.03
2023-07-18T06:19:31.413Z,4.80
2023-07-18T06:21:58.429Z,4.72
2023-07-18T06:24:25.687Z,4.45
2023-07-18T06:26:52.618Z,5.35
2023-07-18T06:29:20.157Z,4.57
2023-07-18T06:31:48.215Z,4.55
2023-07-18T06:34:14.925Z,4.25
2023-07-18T06:36:41.546Z,5.50
2023-07-18T06:39:08.202Z,4.75
2023-07-18T06:41:34.826Z,6.20
2023-07-18T06:44:01.348Z,6.43
2023-07-18T06:46:28.743Z,6.28
2023-07-18T06:48:55.258Z,6.03
2023-07-18T06:51:21.958Z,5.32
2023-07-18T06:53:48.532Z,4.55
2023-07-18T06:56:15.267Z,4.93
2023-07-18T06:58:42.858Z,4.80
2023-07-18T07:01:11.590Z,5.13
2023-07-18T07:03:38.583Z,4.85
2023-07-18T07:06:12.136Z,5.53
2023-07-18T07:08:38.725Z,5.40
2023-07-18T07:11:09.564Z,4.88
2023-07-18T07:13:37.508Z,5.57
2023-07-18T07:16:05.053Z,5.32
2023-07-18T07:18:31.995Z,5.10
2023-07-18T07:20:58.726Z,4.40
2023-07-18T07:23:25.365Z,4.47
2023-07-18T07:25:52.420Z,4.20
2023-07-18T07:28:20.563Z,4.03
2023-07-18T07:30:47.323Z,3.88
2023-07-18T07:33:14.129Z,3.45
2023-07-18T07:35:40.798Z,3.75
2023-07-18T07:38:07.822Z,3.67
2023-07-18T07:40:34.521Z,3.28
2023-07-18T07:43:01.130Z,3.45
2023-07-18T07:45:27.717Z,3.40
2023-07-18T07:47:54.698Z,2.80
2023-07-18T07:50:21.514Z,2.83
2023-07-18T07:52:48.272Z,2.83
2023-07-18T07:55:14.980Z,3.45
2023-07-18T07:57:42.377Z,3.17
2023-07-18T08:00:09.634Z,3.10
2023-07-18T08:02:36.246Z,3.00
2023-07-18T08:05:02.881Z,3.10
2023-07-18T08:07:30.074Z,2.50
2023-07-18T08:09:56.752Z,2.60
2023-07-18T08:12:23.471Z,2.97
2023-07-18T08:14:50.193Z,2.88
2023-07-18T08:17:18.129Z,2.72
2023-07-18T08:19:44.844Z,2.60
2023-07-18T08:22:11.768Z,2.75
2023-07-18T08:24:39.056Z,2.05
2023-07-18T08:27:05.797Z,2.70
2023-07-18T08:29:34.648Z,2.17
2023-07-18T08:32:01.447Z,2.20
2023-07-18T08:34:28.344Z,2.58
2023-07-18T08:36:54.966Z,2.22
2023-07-18T08:39:21.782Z,2.55
2023-07-18T08:41:52.814Z,2.65
2023-07-18T08:44:20.436Z,2.63
2023-07-18T08:46:47.925Z,2.60
2023-07-18T08:49:16.657Z,2.72
2023-07-18T08:51:44.536Z,2.40
2023-07-18T08:54:12.055Z,2.80
2023-07-18T08:56:41.482Z,2.80
2023-07-18T08:59:08.306Z,2.67
2023-07-18T09:01:34.990Z,3.15
2023-07-18T09:04:02.178Z,2.72
2023-07-18T09:06:29.090Z,2.63
2023-07-18T09:08:56.297Z,2.55
2023-07-18T09:11:23.155Z,3.53
2023-07-18T09:13:50.135Z,2.67
2023-07-18T09:16:25.147Z,2.88
2023-07-18T09:18:53.960Z,2.40
2023-07-18T09:21:21.925Z,3.28
2023-07-18T09:23:49.142Z,2.92
2023-07-18T09:26:18.446Z,3.20
2023-07-18T09:28:44.993Z,2.75
2023-07-18T09:31:27.944Z,3.55
2023-07-18T09:33:55.640Z,2.78
2023-07-18T09:36:24.258Z,2.78
2023-07-18T09:38:51.988Z,2.60
2023-07-18T09:41:21.881Z,2.33
2023-07-18T09:43:49.383Z,2.67
2023-07-18T09:46:17.492Z,2.40
2023-07-18T09:48:48.711Z,2.40
2023-07-18T09:51:21.792Z,2.35
2023-07-18T09:53:49.328Z,2.35
2023-07-18T09:56:17.190Z,1.85
2023-07-18T09:58:45.452Z,2.00
2023-07-18T10:01:13.714Z,2.08
2023-07-18T10:03:41.171Z,2.58
2023-07-18T10:06:10.581Z,2.10
2023-07-18T10:08:40.623Z,2.20
2023-07-18T10:11:10.869Z,2.15
2023-07-18T10:13:55.873Z,2.20
2023-07-18T10:16:23.797Z,2.70
2023-07-18T10:18:52.136Z,2.30
2023-07-18T10:21:36.340Z,2.42
2023-07-18T10:24:29.425Z,2.42
2023-07-18T10:26:59.997Z,2.78
2023-07-18T10:29:35.323Z,2.40
2023-07-18T10:32:01.929Z,2.72
2023-07-18T10:34:28.489Z,2.30
2023-07-18T10:37:00.411Z,2.60
2023-07-18T10:39:38.510Z,2.55
2023-07-18T10:42:29.860Z,2.20
2023-07-18T10:45:00.928Z,2.38
2023-07-18T10:47:29.221Z,2.80
2023-07-18T10:49:56.584Z,2.13
2023-07-18T10:52:23.337Z,2.88
2023-07-18T10:54:56.543Z,2.70
2023-07-18T10:57:28.902Z,2.70
2023-07-18T10:59:56.288Z,3.00
2023-07-18T11:02:23.182Z,2.60
2023-07-18T11:04:54.865Z,3.08
2023-07-18T11:07:33.507Z,3.22
2023-07-18T11:10:01.020Z,4.15
2023-07-18T11:12:27.596Z,2.95
2023-07-18T11:14:56.397Z,3.15
2023-07-18T11:17:24.419Z,3.00
2023-07-18T11:19:50.947Z,2.58
2023-07-18T11:22:17.742Z,2.10
2023-07-18T11:24:46.355Z,2.22
2023-07-18T11:27:23.050Z,2.08
2023-07-18T11:29:50.832Z,2.53
2023-07-18T11:32:40.255Z,1.88
2023-07-18T11:35:11.772Z,2.03
2023-07-18T11:37:43.032Z,2.00
2023-07-18T11:40:11.764Z,1.92
2023-07-18T11:42:46.233Z,2.47
2023-07-18T11:45:12.895Z,2.42
2023-07-18T11:47:53.349Z,2.75
2023-07-18T11:50:20.700Z,2.67
2023-07-18T11:52:52.055Z,3.85
2023-07-18T11:55:20.723Z,2.50
2023-07-18T11:57:49.320Z,2.60
2023-07-18T12:00:19.833Z,2.97
2023-07-18T12:02:47.475Z,2.20
2023-07-18T12:05:17.835Z,2.40
2023-07-18T12:07:48.192Z,2.10
2023-07-18T12:10:19.667Z,2.85
2023-07-18T12:12:46.356Z,2.85
2023-07-18T12:15:13.959Z,2.53
2023-07-18T12:17:41.055Z,3.00
2023-07-18T12:20:08.496Z,2.40
2023-07-18T12:22:35.654Z,3.15
2023-07-18T12:25:04.848Z,2.90
2023-07-18T12:27:31.415Z,3.13
2023-07-18T12:29:58.000Z,3.20
2023-07-18T12:32:28.059Z,2.67
2023-07-18T12:34:55.912Z,3.72
2023-07-18T12:37:22.482Z,2.92
2023-07-18T12:39:49.073Z,3.40
2023-07-18T12:42:15.646Z,3.28
2023-07-18T12:44:44.981Z,2.95
2023-07-18T12:47:12.186Z,3.33
2023-07-18T12:52:09.290Z,3.05
2023-07-18T12:54:35.832Z,2.80
2023-07-18T12:57:02.499Z,3.03
2023-07-18T12:59:29.168Z,3.00
2023-07-18T13:01:56.751Z,2.70
2023-07-18T13:04:23.619Z,2.95
2023-07-18T13:06:50.949Z,3.40
2023-07-18T13:09:17.502Z,3.42
2023-07-18T13:11:44.144Z,3.28
2023-07-18T13:14:10.660Z,2.95
2023-07-18T13:16:37.271Z,3.03
2023-07-18T13:19:05.218Z,3.33
2023-07-18T13:21:32.220Z,3.08
2023-07-18T13:23:58.780Z,2.75
2023-07-18T13:26:25.354Z,3.15
2023-07-18T13:28:51.877Z,2.95
2023-07-18T13:31:18.635Z,3.40
2023-07-18T13:33:45.283Z,2.72
2023-07-18T13:36:12.622Z,3.08
2023-07-18T13:38:39.239Z,2.65
2023-07-18T13:41:09.280Z,4.00
2023-07-18T13:43:36.895Z,2.83
2023-07-18T13:46:03.916Z,3.63
2023-07-18T13:48:33.770Z,2.97
2023-07-18T13:51:01.027Z,2.70
2023-07-18T13:53:27.771Z,3.20
2023-07-18T13:55:54.393Z,3.00
2023-07-18T13:58:20.966Z,3.50
2023-07-18T14:00:47.835Z,3.28
2023-07-18T14:03:32.212Z,2.72
2023-07-18T14:06:01.020Z,2.85
2023-07-18T14:08:29.280Z,2.70
2023-07-18T14:10:56.117Z,3.13
2023-07-18T14:13:22.947Z,3.00
2023-07-18T14:15:49.600Z,2.90
2023-07-18T14:18:16.414Z,2.80
2023-07-18T14:20:43.062Z,3.42
2023-07-18T14:23:10.036Z,3.20
2023-07-18T14:25:36.702Z,2.72
2023-07-18T14:28:03.232Z,2.58
2023-07-18T14:30:29.855Z,2.92
2023-07-18T14:32:56.482Z,2.67
2023-07-18T14:35:24.203Z,3.03
2023-07-18T14:37:51.858Z,3.35
2023-07-18T14:40:18.509Z,3.10
2023-07-18T14:42:45.438Z,3.10
2023-07-18T14:45:12.015Z,3.35
2023-07-18T14:47:38.616Z,3.05
2023-07-18T14:50:05.862Z,3.05
2023-07-18T14:52:32.422Z,3.45
2023-07-18T14:54:59.113Z,3.25
2023-07-18T14:57:28.706Z,3.55
2023-07-18T14:59:55.335Z,3.80
2023-07-18T15:02:22.115Z,3.30
2023-07-18T15:04:48.850Z,3.38
2023-07-18T15:07:15.793Z,3.00
2023-07-18T15:09:42.309Z,3.70
2023-07-18T15:12:09.322Z,3.28
2023-07-18T15:14:36.105Z,3.45
2023-07-18T15:17:02.715Z,3.90
2023-07-18T15:19:29.302Z,3.53
2023-07-18T15:21:56.356Z,3.80
2023-07-18T15:24:22.948Z,3.45
2023-07-18T15:26:49.526Z,3.85
2023-07-18T15:29:16.061Z,3.80
2023-07-18T15:31:42.739Z,3.50
2023-07-18T15:34:10.148Z,3.17
2023-07-18T15:36:36.738Z,3.58
2023-07-18T15:39:03.429Z,3.22
2023-07-18T15:41:30.025Z,3.20
2023-07-18T15:43:57.625Z,3.20
2023-07-18T15:46:24.857Z,3.40
2023-07-18T15:48:51.711Z,3.40
2023-07-18T15:51:18.424Z,3.70
2023-07-18T15:53:45.015Z,3.58
2023-07-18T15:56:15.560Z,3.60
2023-07-18T15:58:42.603Z,3.80
2023-07-18T16:01:09.445Z,3.65
2023-07-18T16:03:36.245Z,3.53
2023-07-18T16:06:03.570Z,3.40
2023-07-18T16:08:30.554Z,3.25
2023-07-18T16:10:57.192Z,3.25
2023-07-18T16:13:23.808Z,3.15
2023-07-18T16:15:50.428Z,3.78
2023-07-18T16:18:17.307Z,3.20
2023-07-18T16:20:43.823Z,4.68
2023-07-18T16:23:10.721Z,3.20
2023-07-18T16:25:37.457Z,3.55
2023-07-18T16:28:04.987Z,3.30
2023-07-18T16:30:31.794Z,3.47
2023-07-18T16:32:58.473Z,3.88
2023-07-18T16:35:25.121Z,3.47
2023-07-18T16:37:51.670Z,3.60
2023-07-18T16:40:18.262Z,3.47
2023-07-18T16:42:44.861Z,3.90
2023-07-18T16:45:11.388Z,3.90
2023-07-18T16:47:37.924Z,4.60
2023-07-18T16:50:05.931Z,5.10
2023-07-18T16:52:32.477Z,4.43
2023-07-18T16:54:59.007Z,3.55
2023-07-18T16:57:25.580Z,3.97
2023-07-18T16:59:52.173Z,4.03
2023-07-18T17:02:18.655Z,3.60
2023-07-18T17:04:45.185Z,3.45
2023-07-18T17:07:11.772Z,3.70
2023-07-18T17:09:38.249Z,4.05
2023-07-18T17:12:05.249Z,3.83
2023-07-18T17:14:32.107Z,3.90
2023-07-18T17:16:58.736Z,3.33
2023-07-18T17:19:25.313Z,3.95
2023-07-18T17:21:51.801Z,3.78
2023-07-18T17:24:18.342Z,4.10
2023-07-18T17:26:45.009Z,3.50
2023-07-18T17:29:11.644Z,3.47
2023-07-18T17:31:38.200Z,3.30
2023-07-18T17:34:05.620Z,3.70
2023-07-18T17:36:32.252Z,3.40
2023-07-18T17:38:58.751Z,3.22
2023-07-18T17:41:25.270Z,3.30
2023-07-18T17:43:51.762Z,4.03
2023-07-18T17:46:18.355Z,4.03
2023-07-18T17:48:45.501Z,3.83
2023-07-18T17:51:12.442Z,3.58
2023-07-18T17:53:39.792Z,3.50
2023-07-18T17:56:07.063Z,3.85
2023-07-18T17:58:33.574Z,3.45
2023-07-18T18:01:00.114Z,3.80
2023-07-18T18:03:26.789Z,4.00
2023-07-18T18:05:53.534Z,3.90
2023-07-18T18:08:20.122Z,4.13
2023-07-18T18:10:47.591Z,3.70
2023-07-18T18:13:15.120Z,3.63
2023-07-18T18:15:56.209Z,3.70
2023-07-18T18:18:26.396Z,3.40
2023-07-18T18:20:53.047Z,3.92
2023-07-18T18:23:31.872Z,3.85
2023-07-18T18:26:05.104Z,3.97
2023-07-18T18:28:32.895Z,3.50
2023-07-18T18:30:59.407Z,4.00
2023-07-18T18:33:26.076Z,3.90
2023-07-18T18:35:53.348Z,4.10
2023-07-18T18:38:19.999Z,3.65
2023-07-18T18:40:46.601Z,4.40
2023-07-18T18:43:13.200Z,3.97
2023-07-18T18:45:39.732Z,4.05
2023-07-18T18:48:08.022Z,3.65
2023-07-18T18:50:34.664Z,3.28
2023-07-18T18:53:01.471Z,3.20
2023-07-18T18:55:29.945Z,3.20
2023-07-18T18:57:58.033Z,3.35
2023-07-18T19:00:24.605Z,3.13
2023-07-18T19:02:51.492Z,3.20
2023-07-18T19:05:18.187Z,3.60
2023-07-18T19:07:44.705Z,3.58
2023-07-18T19:10:11.309Z,3.45
2023-07-18T19:12:37.875Z,3.60
2023-07-18T19:15:04.688Z,4.25
2023-07-18T19:17:31.355Z,3.70
2023-07-18T19:19:58.029Z,3.70
2023-07-18T19:22:24.547Z,3.63
2023-07-18T19:24:51.213Z,3.15
2023-07-18T19:27:17.872Z,3.05
2023-07-18T19:29:45.608Z,3.22
2023-07-18T19:32:12.335Z,3.97
2023-07-18T19:34:42.530Z,4.03
2023-07-18T19:37:09.242Z,3.65
2023-07-18T19:39:37.175Z,3.47
2023-07-18T19:42:07.114Z,3.28
2023-07-18T19:44:35.301Z,3.63
2023-07-18T19:47:03.125Z,3.33
2023-07-18T19:49:30.049Z,3.75
2023-07-18T19:51:59.804Z,3.35
2023-07-18T19:54:26.960Z,3.20
2023-07-18T19:56:54.362Z,2.97
2023-07-18T19:59:20.931Z,3.13
2023-07-18T20:01:47.881Z,3.38
2023-07-18T20:04:14.744Z,3.17
2023-07-18T20:06:41.700Z,3.15
2023-07-18T20:09:08.503Z,3.35
2023-07-18T20:11:35.132Z,3.65
2023-07-18T20:14:02.248Z,3.25
2023-07-18T20:16:28.830Z,3.42
2023-07-18T20:19:01.354Z,3.60
2023-07-18T20:21:29.435Z,3.60
2023-07-18T20:23:56.917Z,3.85
2023-07-18T20:26:23.671Z,3.35
2023-07-18T20:28:50.267Z,3.75
2023-07-18T20:31:17.156Z,3.63
2023-07-18T20:33:44.041Z,3.92
2023-07-18T20:36:10.671Z,5.10
2023-07-18T20:38:37.360Z,4.10
2023-07-18T20:41:06.738Z,3.60
2023-07-18T20:43:35.157Z,3.47
2023-07-18T20:46:03.643Z,3.33
2023-07-18T20:48:31.318Z,3.88
2023-07-18T20:50:59.279Z,3.20
2023-07-18T20:53:26.904Z,3.53
2023-07-18T20:55:53.476Z,3.42
2023-07-18T20:58:20.005Z,3.58
2023-07-18T21:00:46.696Z,3.90
2023-07-18T21:03:13.299Z,4.63
2023-07-18T21:05:40.433Z,3.50
2023-07-18T21:08:07.341Z,4.85
2023-07-18T21:10:34.613Z,4.03
2023-07-18T21:13:01.618Z,4.07
2023-07-18T21:15:28.319Z,3.50
2023-07-18T21:17:55.169Z,3.80
2023-07-18T21:20:21.928Z,3.53
2023-07-18T21:22:48.481Z,3.40
2023-07-18T21:25:15.061Z,3.35
2023-07-18T21:27:41.546Z,3.45
2023-07-18T21:30:08.940Z,3.78
2023-07-18T21:32:36.312Z,3.83
2023-07-18T21:35:03.867Z,3.63
2023-07-18T21:37:30.483Z,3.60
2023-07-18T21:39:57.314Z,3.40
2023-07-18T21:42:23.843Z,3.72
2023-07-18T21:44:50.492Z,4.07
2023-07-18T21:47:17.105Z,2.95
2023-07-18T21:49:43.835Z,3.35
2023-07-18T21:52:10.386Z,3.55
2023-07-18T21:54:37.058Z,3.40
2023-07-18T21:57:04.837Z,4.03
2023-07-18T21:59:31.305Z,3.83
2023-07-18T22:01:57.826Z,3.60
2023-07-18T22:04:24.398Z,3.55
2023-07-18T22:06:50.970Z,4.20
2023-07-18T22:09:17.506Z,3.80
2023-07-18T22:11:44.040Z,3.65
2023-07-18T22:14:10.530Z,3.53
2023-07-18T22:16:37.056Z,4.13
2023-07-18T22:19:03.594Z,3.80
2023-07-18T22:21:30.156Z,3.75
2023-07-18T22:23:56.675Z,3.60
2023-07-18T22:26:23.280Z,3.42
2023-07-18T22:28:49.882Z,3.50
2023-07-18T22:31:17.262Z,4.20
2023-07-18T22:33:43.836Z,3.95
2023-07-18T22:36:10.396Z,4.05
2023-07-18T22:38:37.044Z,4.32
2023-07-18T22:41:04.353Z,4.13
2023-07-18T22:43:30.925Z,3.92
2023-07-18T22:45:57.608Z,4.05
2023-07-18T22:48:24.178Z,3.90
2023-07-18T22:50:53.572Z,4.18
2023-07-18T22:53:20.324Z,4.15
2023-07-18T22:55:48.529Z,4.22
2023-07-18T22:58:15.896Z,4.13
2023-07-18T23:00:43.256Z,4.32
2023-07-18T23:03:10.030Z,3.60
2023-07-18T23:05:36.943Z,4.35
2023-07-18T23:08:05.476Z,4.20
2023-07-18T23:10:33.038Z,4.47
2023-07-18T23:12:59.887Z,4.30
2023-07-18T23:15:26.816Z,4.05
2023-07-18T23:17:53.533Z,3.92
2023-07-18T23:20:20.194Z,4.03
2023-07-18T23:22:46.774Z,4.00
2023-07-18T23:25:13.413Z,4.30
2023-07-18T23:27:40.043Z,4.13
2023-07-18T23:30:07.378Z,4.38
2023-07-18T23:32:34.101Z,4.07
2023-07-18T23:35:00.872Z,3.85
2023-07-18T23:37:27.506Z,4.22
2023-07-18T23:39:54.208Z,4.20
2023-07-18T23:42:20.808Z,4.75
2023-07-18T23:44:47.401Z,4.15
2023-07-18T23:47:13.929Z,4.00
2023-07-18T23:49:40.492Z,4.13
2023-07-18T23:52:07.442Z,5.47
2023-07-18T23:54:34.025Z,4.20
2023-07-18T23:57:00.612Z,4.13
2023-07-18T23:59:27.070Z,4.03
